Time;durP1;ratioP1;P1;durP2;ratioP2;P2;SDS_P1;SDS_P2;PMS_P1;PMS_P2;Temp;Humidity;BMP_temperature;BMP_pressure;BME280_temperature;BME280_humidity;BME280_pressure;Samples;Min_cycle;Max_cycle;Signal;HPM_P1;HPM_P2
2022/06/16 00:02:16;;;;;;;5.53;4.88;;;19.80;93.10;;;;;;4995018;28;20205;-77
2022/06/16 00:04:46;;;;;;;5.15;4.30;;;19.90;92.80;;;;;;4994476;28;20228;-77
2022/06/16 00:07:15;;;;;;;5.43;4.43;;;20.10;92.50;;;;;;4995034;28;20201;-77
2022/06/16 00:09:43;;;;;;;4.68;4.22;;;20.10;92.30;;;;;;4995522;28;20213;-77
2022/06/16 00:12:10;;;;;;;5.97;3.95;;;20.10;92.10;;;;;;5010148;28;20200;-77
2022/06/16 00:14:38;;;;;;;6.38;3.97;;;20.10;91.90;;;;;;4999654;28;20686;-77
2022/06/16 00:17:07;;;;;;;4.85;3.78;;;20.20;91.70;;;;;;5014467;28;20219;-77
2022/06/16 00:19:35;;;;;;;4.38;3.63;;;20.00;92.00;;;;;;4997641;28;20201;-77
2022/06/16 00:22:02;;;;;;;6.55;4.30;;;20.10;91.80;;;;;;4999415;28;20188;-77
2022/06/16 00:24:30;;;;;;;5.45;3.92;;;19.80;92.10;;;;;;4998019;28;20223;-77
2022/06/16 00:26:58;;;;;;;6.28;4.30;;;19.80;92.40;;;;;;4997599;28;20272;-77
2022/06/16 00:29:25;;;;;;;4.60;4.03;;;19.80;92.20;;;;;;4997308;28;20211;-77
2022/06/16 00:31:53;;;;;;;4.50;4.10;;;19.80;92.10;;;;;;4997208;28;20201;-77
2022/06/16 00:34:22;;;;;;;5.22;3.85;;;19.50;92.00;;;;;;4996766;28;20578;-77
2022/06/16 00:36:50;;;;;;;7.97;3.80;;;19.60;92.10;;;;;;4997921;28;20216;-77
2022/06/16 00:39:17;;;;;;;5.03;3.92;;;19.70;91.70;;;;;;4996824;28;20200;-78
2022/06/16 00:41:45;;;;;;;6.13;4.05;;;19.70;91.60;;;;;;4994643;28;20201;-77
2022/06/16 00:44:19;;;;;;;4.95;3.90;;;19.60;91.50;;;;;;4994812;28;20237;-77
2022/06/16 00:46:46;;;;;;;6.70;4.00;;;19.60;91.50;;;;;;4989004;28;20196;-78
2022/06/16 00:49:15;;;;;;;5.10;3.95;;;19.50;91.50;;;;;;4996447;28;20231;-78
2022/06/16 00:51:46;;;;;;;4.95;3.97;;;19.60;91.50;;;;;;5012689;28;20207;-78
2022/06/16 00:54:20;;;;;;;4.68;3.95;;;19.50;91.60;;;;;;5011547;28;20220;-78
2022/06/16 00:56:48;;;;;;;5.93;4.07;;;19.30;92.00;;;;;;5012050;28;20576;-78
2022/06/16 00:59:16;;;;;;;5.78;3.88;;;19.40;91.40;;;;;;5011810;28;20678;-78
2022/06/16 01:01:45;;;;;;;5.35;4.00;;;19.40;91.30;;;;;;5012209;28;20599;-77
2022/06/16 01:07:11;;;;;;;5.20;3.60;;;19.40;91.40;;;;;;5008119;28;20280;-77
2022/06/16 01:09:42;;;;;;;5.85;3.92;;;19.20;91.80;;;;;;4994209;28;20212;-77
2022/06/16 01:15:28;;;;;;;4.03;3.58;;;19.10;92.40;;;;;;4994735;28;20720;-78
2022/06/16 01:18:03;;;;;;;5.43;4.07;;;18.80;92.40;;;;;;5011412;28;20335;-77
2022/06/16 01:20:43;;;;;;;6.70;4.15;;;18.80;92.70;;;;;;5010602;28;20223;-77
2022/06/16 01:23:53;;;;;;;4.95;3.53;;;18.90;92.70;;;;;;5000968;28;20204;-77
2022/06/16 01:26:59;;;;;;;5.78;3.72;;;19.10;92.10;;;;;;4973361;28;20201;-78
2022/06/16 01:29:35;;;;;;;4.65;3.95;;;19.20;91.50;;;;;;4984742;28;20674;-78
2022/06/16 01:32:11;;;;;;;4.18;3.78;;;19.00;91.70;;;;;;5010910;28;20192;-78
2022/06/16 01:34:47;;;;;;;5.40;3.92;;;19.00;91.60;;;;;;5010896;28;20228;-77
2022/06/16 01:37:22;;;;;;;5.20;3.78;;;19.00;91.80;;;;;;5003439;28;20200;-77
2022/06/16 01:39:58;;;;;;;5.97;4.18;;;18.90;92.10;;;;;;5016980;28;20218;-77
2022/06/16 01:42:32;;;;;;;4.13;3.53;;;18.60;92.40;;;;;;5014103;28;20202;-78
2022/06/16 01:45:10;;;;;;;3.85;3.33;;;18.30;93.20;;;;;;5004318;28;20228;-78
2022/06/16 01:47:43;;;;;;;5.30;3.63;;;18.50;93.80;;;;;;4975787;28;20537;-78
2022/06/16 01:50:15;;;;;;;5.30;3.45;;;18.60;93.50;;;;;;4991385;28;20212;-78
2022/06/16 01:52:48;;;;;;;4.93;3.80;;;18.80;92.90;;;;;;5011175;28;20564;-78
2022/06/16 01:55:21;;;;;;;8.07;3.85;;;19.00;92.10;;;;;;5002455;28;20217;-78
2022/06/16 01:57:54;;;;;;;6.00;3.70;;;18.90;91.90;;;;;;4991854;28;20232;-77
2022/06/16 02:00:25;;;;;;;5.50;4.10;;;19.00;91.70;;;;;;5008218;28;20192;-77
2022/06/16 02:03:03;;;;;;;5.82;3.55;;;18.90;91.80;;;;;;5011440;28;20215;-78
2022/06/16 02:05:37;;;;;;;4.97;3.55;;;18.90;91.90;;;;;;5010301;28;20733;-78
2022/06/16 02:08:08;;;;;;;5.55;3.80;;;18.90;92.00;;;;;;4994363;28;20204;-78
2022/06/16 02:10:42;;;;;;;5.75;3.45;;;19.00;91.70;;;;;;4994325;28;20235;-78
2022/06/16 02:13:12;;;;;;;4.35;3.78;;;18.80;91.90;;;;;;5010532;28;20197;-77
2022/06/16 02:15:55;;;;;;;6.55;3.63;;;18.90;91.80;;;;;;5010749;28;20219;-78
2022/06/16 02:18:27;;;;;;;5.30;3.65;;;18.90;91.70;;;;;;5011811;28;20196;-77
2022/06/16 02:21:01;;;;;;;4.72;3.55;;;19.00;91.40;;;;;;4992291;28;20193;-77
2022/06/16 02:23:30;;;;;;;3.88;3.40;;;18.90;91.20;;;;;;5008149;28;20196;-78
2022/06/16 02:25:59;;;;;;;4.85;3.58;;;19.00;91.00;;;;;;5010185;28;20224;-78
2022/06/16 02:28:28;;;;;;;4.75;3.88;;;18.70;90.90;;;;;;5009373;28;20199;-77
2022/06/16 02:31:06;;;;;;;5.65;3.70;;;18.40;91.40;;;;;;4994335;28;20219;-78
2022/06/16 02:33:49;;;;;;;6.45;3.80;;;18.40;92.00;;;;;;4993794;28;20203;-78
2022/06/16 02:36:40;;;;;;;6.75;3.75;;;18.20;92.20;;;;;;4993352;28;20207;-78
2022/06/16 02:39:19;;;;;;;4.50;3.80;;;18.10;92.20;;;;;;4993521;28;20203;-77
2022/06/16 02:41:58;;;;;;;6.18;3.47;;;17.90;92.70;;;;;;4990471;28;20201;-77
2022/06/16 02:44:35;;;;;;;5.72;3.78;;;18.00;92.50;;;;;;5006442;28;20224;-77
2022/06/16 02:47:07;;;;;;;3.90;3.30;;;18.20;92.10;;;;;;5006816;28;20208;-77
2022/06/16 02:49:42;;;;;;;3.90;3.40;;;18.20;91.80;;;;;;4984136;28;20193;-78
2022/06/16 02:52:25;;;;;;;6.30;3.65;;;17.90;91.90;;;;;;5009192;28;20192;-77
2022/06/16 02:55:00;;;;;;;4.47;3.28;;;18.00;92.00;;;;;;4993012;28;20613;-77
2022/06/16 02:57:37;;;;;;;4.88;3.35;;;17.90;92.20;;;;;;5009332;28;20258;-77
2022/06/16 03:00:08;;;;;;;5.07;3.55;;;18.00;92.10;;;;;;5003637;28;20192;-78
2022/06/16 03:02:41;;;;;;;4.47;3.40;;;17.90;91.90;;;;;;4991458;28;20218;-78
2022/06/16 03:05:10;;;;;;;6.18;3.53;;;17.80;92.60;;;;;;5009702;28;20224;-78
2022/06/16 03:07:38;;;;;;;3.88;3.35;;;17.90;92.10;;;;;;5010113;28;20203;-78
2022/06/16 03:10:50;;;;;;;6.82;3.70;;;17.80;92.60;;;;;;4992735;28;20589;-78
2022/06/16 03:13:07;;;;;;;7.88;3.50;;;17.80;92.50;;;;;;4993222;28;20201;-79
2022/06/16 03:15:34;;;;;;;5.65;3.72;;;17.80;92.80;;;;;;4993567;28;20220;-78
2022/06/16 03:18:03;;;;;;;4.57;3.28;;;17.70;92.90;;;;;;5008638;28;20200;-78
2022/06/16 03:20:30;;;;;;;5.22;3.50;;;17.80;92.80;;;;;;4989805;28;20222;-77
2022/06/16 03:22:58;;;;;;;4.30;3.35;;;17.70;92.60;;;;;;5009089;28;20211;-78
2022/06/16 03:25:27;;;;;;;4.45;3.15;;;18.00;92.10;;;;;;4992946;28;20228;-78
2022/06/16 03:27:58;;;;;;;5.15;3.60;;;18.20;91.60;;;;;;4992925;28;20200;-78
2022/06/16 03:30:30;;;;;;;4.72;3.47;;;18.30;91.60;;;;;;4989284;28;20221;-80
2022/06/16 03:32:57;;;;;;;3.63;3.25;;;18.30;91.60;;;;;;4993037;28;20212;-80
2022/06/16 03:35:26;;;;;;;4.20;3.80;;;18.30;91.60;;;;;;4992775;28;20227;-80
2022/06/16 03:37:58;;;;;;;4.95;3.05;;;18.30;91.80;;;;;;4992724;28;20208;-80
2022/06/16 03:40:26;;;;;;;6.25;3.40;;;18.30;92.00;;;;;;5001832;28;20200;-81
2022/06/16 03:42:54;;;;;;;4.50;3.38;;;18.10;92.10;;;;;;5011822;28;20200;-80
2022/06/16 03:45:23;;;;;;;4.97;3.47;;;18.10;92.10;;;;;;4995470;28;20223;-80
2022/06/16 03:47:53;;;;;;;4.82;3.08;;;18.10;92.10;;;;;;4995301;28;20196;-80
2022/06/16 03:50:21;;;;;;;3.47;2.92;;;18.10;92.00;;;;;;5008585;28;20220;-80
2022/06/16 03:52:54;;;;;;;3.42;2.88;;;18.00;92.20;;;;;;5010715;28;20208;-80
2022/06/16 03:55:22;;;;;;;3.15;2.85;;;18.10;92.20;;;;;;5012438;28;20231;-80
2022/06/16 03:57:51;;;;;;;5.32;3.53;;;18.10;92.00;;;;;;4995549;28;20209;-80
2022/06/16 04:00:20;;;;;;;3.28;2.95;;;18.00;92.10;;;;;;5006879;28;20192;-80
2022/06/16 04:02:49;;;;;;;6.70;3.08;;;18.00;92.00;;;;;;4997379;28;20207;-80
2022/06/16 04:05:25;;;;;;;4.82;2.55;;;18.00;91.70;;;;;;4995713;28;20732;-80
2022/06/16 04:08:06;;;;;;;2.70;2.38;;;17.90;91.50;;;;;;5012062;28;20653;-80
2022/06/16 04:10:34;;;;;;;3.42;2.88;;;17.80;91.30;;;;;;4992229;28;20217;-80
2022/06/16 04:13:05;;;;;;;2.80;2.58;;;17.80;91.00;;;;;;4992790;28;20205;-80
2022/06/16 04:15:34;;;;;;;4.05;2.55;;;17.90;91.00;;;;;;4992674;28;20221;-80
2022/06/16 04:18:04;;;;;;;3.17;2.88;;;17.80;91.10;;;;;;4992459;28;20206;-80
2022/06/16 04:20:35;;;;;;;4.05;2.58;;;17.40;91.80;;;;;;4992432;28;20193;-80
2022/06/16 04:23:10;;;;;;;3.95;2.90;;;17.10;92.90;;;;;;4992166;28;20202;-80
2022/06/16 04:25:38;;;;;;;3.85;2.90;;;17.40;92.00;;;;;;4991903;28;20221;-80
2022/06/16 04:28:16;;;;;;;3.53;3.20;;;17.70;91.90;;;;;;4992267;28;20557;-80
2022/06/16 04:30:54;;;;;;;3.88;3.20;;;17.70;91.80;;;;;;4994189;28;20229;-80
2022/06/16 04:33:25;;;;;;;3.95;3.30;;;17.60;92.00;;;;;;4979512;28;20197;-80
2022/06/16 04:35:55;;;;;;;3.35;2.90;;;17.60;91.90;;;;;;4979303;28;20675;-80
2022/06/16 04:38:27;;;;;;;4.28;2.70;;;17.50;92.10;;;;;;4981023;28;20182;-80
2022/06/16 04:40:58;;;;;;;3.38;2.80;;;17.30;92.90;;;;;;4993866;28;20201;-80
2022/06/16 04:43:27;;;;;;;3.88;2.75;;;17.30;93.30;;;;;;4996007;28;20197;-80
2022/06/16 04:45:58;;;;;;;4.25;3.22;;;17.50;92.50;;;;;;5014835;28;20586;-80
2022/06/16 04:48:37;;;;;;;2.38;2.15;;;17.70;91.80;;;;;;5015140;28;20207;-80
2022/06/16 04:51:10;;;;;;;3.97;2.50;;;17.80;91.70;;;;;;5002874;28;20216;-80
2022/06/16 04:53:45;;;;;;;4.97;2.38;;;17.50;91.80;;;;;;4998293;28;20196;-80
2022/06/16 04:56:17;;;;;;;4.80;2.63;;;17.60;91.70;;;;;;4999204;28;20737;-80
2022/06/16 04:58:54;;;;;;;2.95;2.33;;;17.60;91.90;;;;;;5010709;28;20208;-80
2022/06/16 05:01:42;;;;;;;3.45;2.40;;;17.60;91.90;;;;;;4969030;28;20599;-80
2022/06/16 05:04:28;;;;;;;3.72;3.30;;;17.80;91.80;;;;;;4999671;28;20231;-80
2022/06/16 05:07:16;;;;;;;2.85;2.65;;;17.80;91.60;;;;;;4997732;28;20205;-80
2022/06/16 05:09:57;;;;;;;3.40;2.90;;;17.70;91.90;;;;;;4998172;28;20204;-80
2022/06/16 05:12:59;;;;;;;2.88;2.47;;;17.80;91.90;;;;;;4999204;28;20566;-80
2022/06/16 05:15:41;;;;;;;4.13;2.65;;;17.80;91.70;;;;;;5014383;28;20219;-79
2022/06/16 05:18:27;;;;;;;3.13;2.40;;;17.80;91.50;;;;;;5014020;28;20220;-79
2022/06/16 05:21:06;;;;;;;3.95;2.55;;;17.90;91.90;;;;;;5014627;28;20192;-80
2022/06/16 05:23:54;;;;;;;2.70;2.50;;;17.90;92.00;;;;;;4995702;28;20200;-80
2022/06/16 05:26:43;;;;;;;4.05;2.72;;;17.90;91.80;;;;;;4997883;28;20208;-80
2022/06/16 05:29:38;;;;;;;4.70;2.58;;;17.90;92.30;;;;;;5013932;28;20288;-80
2022/06/16 05:32:21;;;;;;;3.33;2.83;;;17.80;92.10;;;;;;5013912;28;20676;-80
2022/06/16 05:35:07;;;;;;;4.05;2.78;;;18.00;92.10;;;;;;5002607;28;20231;-80
2022/06/16 05:37:44;;;;;;;4.60;3.00;;;17.90;92.30;;;;;;4998912;28;20588;-80
2022/06/16 05:40:30;;;;;;;5.50;2.60;;;18.00;92.40;;;;;;4999082;28;20204;-80
2022/06/16 05:43:17;;;;;;;3.90;2.63;;;18.00;92.50;;;;;;5006046;28;20204;-80
2022/06/16 05:46:06;;;;;;;3.83;2.67;;;17.90;92.90;;;;;;4999232;28;20717;-80
2022/06/16 05:48:43;;;;;;;5.03;3.03;;;17.90;93.00;;;;;;5014142;28;20203;-80
2022/06/16 05:51:16;;;;;;;5.15;3.20;;;17.90;93.50;;;;;;5014143;28;20234;-80
2022/06/16 05:53:55;;;;;;;4.07;3.05;;;18.00;93.30;;;;;;4999012;28;20674;-80
2022/06/16 05:56:27;;;;;;;4.18;2.60;;;17.90;93.60;;;;;;5009263;28;20228;-80
2022/06/16 05:58:57;;;;;;;5.53;3.05;;;18.00;93.40;;;;;;4996985;28;20204;-80
2022/06/16 06:01:26;;;;;;;6.55;3.25;;;17.90;93.80;;;;;;5013556;28;20207;-80
2022/06/16 06:04:05;;;;;;;4.47;2.83;;;17.80;94.30;;;;;;4996778;28;20207;-80
2022/06/16 06:06:34;;;;;;;5.55;3.10;;;17.90;94.40;;;;;;4994217;28;20193;-80
2022/06/16 06:17:21;;;;;;;4.75;3.28;;;18.10;94.60;;;;;;4997108;28;20204;-80
2022/06/16 06:19:52;;;;;;;6.07;3.40;;;18.10;94.40;;;;;;4994089;28;20552;-80
2022/06/16 06:22:24;;;;;;;4.30;2.90;;;18.10;94.70;;;;;;4993385;28;20193;-80
2022/06/16 06:24:58;;;;;;;3.53;2.95;;;18.30;94.70;;;;;;4977463;28;20223;-80
2022/06/16 06:27:33;;;;;;;6.28;2.97;;;18.20;94.20;;;;;;4991880;28;20205;-80
2022/06/16 06:30:04;;;;;;;4.70;2.78;;;18.30;94.40;;;;;;5012772;28;20203;-81
2022/06/16 06:32:32;;;;;;;4.70;2.95;;;18.30;94.50;;;;;;5015959;28;20222;-80
2022/06/16 06:35:00;;;;;;;3.97;2.78;;;18.40;94.50;;;;;;5016162;28;20220;-80
2022/06/16 06:37:28;;;;;;;4.05;3.33;;;18.40;94.50;;;;;;5002281;28;20205;-80
2022/06/16 06:39:57;;;;;;;5.85;3.17;;;18.30;94.90;;;;;;4993842;28;20211;-80
2022/06/16 06:42:25;;;;;;;3.63;2.40;;;18.30;95.00;;;;;;4997009;28;20220;-79
2022/06/16 06:44:56;;;;;;;4.65;2.50;;;18.50;94.90;;;;;;5004882;28;20228;-80
2022/06/16 06:47:27;;;;;;;3.40;2.97;;;18.60;95.00;;;;;;5009307;28;20196;-80
2022/06/16 06:49:55;;;;;;;3.50;2.85;;;18.60;95.00;;;;;;5006474;28;20203;-79
2022/06/16 06:52:23;;;;;;;5.55;3.05;;;18.60;95.00;;;;;;5006149;28;20235;-79
2022/06/16 06:54:50;;;;;;;3.20;2.90;;;18.60;94.90;;;;;;5012906;28;20216;-79
2022/06/16 06:57:21;;;;;;;4.40;2.70;;;18.60;94.70;;;;;;4992465;28;20192;-80
2022/06/16 06:59:49;;;;;;;4.18;2.80;;;18.90;94.60;;;;;;4997176;28;20200;-79
2022/06/16 07:02:18;;;;;;;5.65;2.67;;;18.70;95.10;;;;;;5011031;28;20546;-79
2022/06/16 07:04:46;;;;;;;4.50;2.90;;;18.10;97.00;;;;;;5000795;28;20240;-79
2022/06/16 07:07:17;;;;;;;4.32;2.90;;;18.50;96.00;;;;;;4983337;28;20223;-79
2022/06/16 07:09:45;;;;;;;4.38;2.70;;;18.60;94.90;;;;;;5012614;28;20215;-79
2022/06/16 07:12:18;;;;;;;4.45;2.40;;;18.70;94.70;;;;;;4996480;28;20231;-80
2022/06/16 07:14:48;;;;;;;4.47;2.97;;;18.90;94.20;;;;;;4996971;28;20216;-79
2022/06/16 07:17:17;;;;;;;3.53;2.35;;;18.80;94.60;;;;;;5005289;28;20220;-79
2022/06/16 07:19:46;;;;;;;3.25;2.00;;;18.90;94.60;;;;;;5014053;28;20553;-79
2022/06/16 07:22:13;;;;;;;4.95;2.15;;;18.90;93.90;;;;;;4999538;28;20199;-79
2022/06/16 07:24:41;;;;;;;3.08;2.47;;;19.10;93.60;;;;;;4997206;28;20749;-79
2022/06/16 07:27:09;;;;;;;3.83;2.47;;;19.30;93.20;;;;;;4997922;28;20197;-80
2022/06/16 07:29:37;;;;;;;3.17;2.00;;;19.30;92.80;;;;;;5014230;28;20590;-79
2022/06/16 07:32:05;;;;;;;3.58;2.40;;;19.40;92.50;;;;;;5013588;28;20246;-79
2022/06/16 07:34:33;;;;;;;4.53;2.03;;;19.20;91.70;;;;;;5013292;28;20220;-79
2022/06/16 07:37:02;;;;;;;4.60;2.55;;;19.30;91.70;;;;;;5010912;28;20194;-79
2022/06/16 07:39:29;;;;;;;2.75;1.67;;;19.60;91.10;;;;;;4994689;28;20196;-79
2022/06/16 07:41:57;;;;;;;4.65;2.38;;;19.60;90.70;;;;;;4994386;28;20538;-79
2022/06/16 07:44:25;;;;;;;2.75;1.65;;;19.50;88.80;;;;;;5001939;28;20224;-79
2022/06/16 07:46:53;;;;;;;2.53;2.13;;;19.30;87.70;;;;;;4997504;28;20202;-79
2022/06/16 07:49:25;;;;;;;2.78;1.90;;;19.30;88.50;;;;;;5013186;28;20207;-79
2022/06/16 07:51:55;;;;;;;3.67;2.10;;;19.40;87.80;;;;;;4993868;28;20216;-80
2022/06/16 07:54:24;;;;;;;2.97;1.60;;;19.50;88.40;;;;;;4993051;28;20686;-79
2022/06/16 07:56:52;;;;;;;2.55;1.48;;;19.50;87.00;;;;;;4996204;28;20659;-79
2022/06/16 07:59:20;;;;;;;2.72;1.65;;;19.60;86.40;;;;;;5025934;28;20204;-79
2022/06/16 08:01:47;;;;;;;4.35;1.80;;;19.60;84.90;;;;;;5012273;28;20200;-79
2022/06/16 08:04:15;;;;;;;3.05;1.40;;;19.50;85.10;;;;;;5011665;28;20542;-79
2022/06/16 08:06:43;;;;;;;2.35;1.38;;;19.50;81.90;;;;;;5015724;28;20197;-79
2022/06/16 08:09:12;;;;;;;3.58;1.75;;;19.50;79.90;;;;;;4998224;28;20211;-77
2022/06/16 08:14:26;;;;;;;3.47;1.60;;;19.40;80.00;;;;;;4998129;28;20224;-79
2022/06/16 08:16:53;;;;;;;2.55;1.40;;;19.40;80.00;;;;;;5014665;28;20201;-80
2022/06/16 08:19:21;;;;;;;2.97;1.83;;;19.40;79.10;;;;;;4998420;28;20205;-79
2022/06/16 08:21:49;;;;;;;2.38;1.73;;;19.30;79.60;;;;;;4999878;28;20199;-79
2022/06/16 08:24:17;;;;;;;2.92;1.42;;;19.60;80.90;;;;;;5014446;28;20586;-79
2022/06/16 08:26:47;;;;;;;2.08;1.30;;;19.70;79.30;;;;;;5016820;28;20596;-79
2022/06/16 08:29:18;;;;;;;2.75;1.50;;;19.80;78.20;;;;;;4999539;28;20201;-79
2022/06/16 08:31:46;;;;;;;2.17;1.27;;;19.80;78.00;;;;;;5015581;28;20200;-79
2022/06/16 08:34:13;;;;;;;2.25;1.30;;;19.80;77.20;;;;;;5016337;28;20227;-79
2022/06/16 08:36:41;;;;;;;1.50;1.30;;;20.00;77.00;;;;;;5000326;28;20196;-79
2022/06/16 08:39:10;;;;;;;1.77;1.40;;;19.90;76.70;;;;;;4999481;28;20204;-79
2022/06/16 08:41:44;;;;;;;2.67;1.50;;;20.00;78.10;;;;;;5016163;28;20223;-80
2022/06/16 08:44:20;;;;;;;3.42;1.33;;;20.20;77.70;;;;;;5016748;28;20200;-79
2022/06/16 08:46:56;;;;;;;1.52;1.10;;;20.30;77.70;;;;;;5017098;28;20199;-79
2022/06/16 08:49:33;;;;;;;1.85;1.30;;;20.10;77.00;;;;;;4999801;28;20208;-79
2022/06/16 08:52:18;;;;;;;3.15;1.42;;;20.10;76.90;;;;;;4999110;28;20219;-79
2022/06/16 08:55:00;;;;;;;2.33;1.30;;;20.10;75.90;;;;;;5001019;28;20216;-80
2022/06/16 08:57:37;;;;;;;3.47;1.10;;;20.30;73.30;;;;;;5016063;28;20204;-79
2022/06/16 09:00:10;;;;;;;1.90;1.20;;;20.50;72.90;;;;;;4987179;28;20208;-79
2022/06/16 09:02:46;;;;;;;2.67;1.30;;;20.60;71.30;;;;;;4997316;28;20208;-79
2022/06/16 09:05:24;;;;;;;4.03;1.48;;;20.50;68.90;;;;;;4983830;28;20223;-79
2022/06/16 09:08:03;;;;;;;2.65;1.05;;;20.70;70.00;;;;;;5002561;28;20681;-79
2022/06/16 09:10:38;;;;;;;2.25;1.13;;;20.70;70.40;;;;;;5002070;28;20207;-79
2022/06/16 09:13:35;;;;;;;2.35;1.15;;;20.70;70.00;;;;;;5001751;28;20211;-79
2022/06/16 09:16:19;;;;;;;1.45;1.10;;;20.70;70.50;;;;;;5015838;28;20270;-79
2022/06/16 09:19:15;;;;;;;3.08;1.15;;;20.70;70.50;;;;;;5009565;28;20554;-80
2022/06/16 09:21:53;;;;;;;1.77;1.15;;;20.60;66.80;;;;;;5001794;28;20211;-79
2022/06/16 09:24:47;;;;;;;1.90;1.27;;;20.80;65.60;;;;;;5018704;28;20220;-80
2022/06/16 09:27:19;;;;;;;1.85;1.08;;;20.90;65.50;;;;;;4989874;28;20204;-80
2022/06/16 09:29:51;;;;;;;1.10;0.73;;;21.00;63.90;;;;;;4999974;28;20284;-79
2022/06/16 09:32:26;;;;;;;1.17;0.95;;;20.80;62.10;;;;;;5017686;28;20573;-79
2022/06/16 09:34:59;;;;;;;3.15;0.90;;;20.80;62.50;;;;;;4997449;28;20228;-79
2022/06/16 09:37:32;;;;;;;1.33;1.00;;;20.90;63.80;;;;;;4995595;28;20567;-80
2022/06/16 09:40:04;;;;;;;2.83;1.30;;;20.70;63.20;;;;;;4998117;28;20197;-79
2022/06/16 09:42:36;;;;;;;2.08;0.70;;;20.80;64.00;;;;;;4998267;28;20197;-79
2022/06/16 09:45:20;;;;;;;3.50;2.80;;;20.90;65.40;;;;;;4998093;28;20225;-79
2022/06/16 09:47:53;;;;;;;1.75;1.13;;;21.00;63.90;;;;;;5004397;28;20196;-79
2022/06/16 09:50:28;;;;;;;3.13;1.30;;;20.80;62.30;;;;;;5005675;28;20204;-79
2022/06/16 09:53:02;;;;;;;2.30;1.10;;;20.80;62.80;;;;;;5013162;28;20570;-79
2022/06/16 09:55:34;;;;;;;1.25;0.80;;;20.90;60.60;;;;;;5009914;28;20580;-79
2022/06/16 09:58:07;;;;;;;2.10;0.90;;;21.10;62.50;;;;;;4992774;28;20201;-79
2022/06/16 10:00:35;;;;;;;1.88;0.93;;;21.20;64.00;;;;;;4990286;28;20208;-78
2022/06/16 10:03:24;;;;;;;1.55;0.85;;;21.30;63.90;;;;;;4990410;28;20571;-79
2022/06/16 10:06:02;;;;;;;2.17;1.20;;;21.30;63.30;;;;;;4990335;28;20587;-79
2022/06/16 10:08:38;;;;;;;1.70;1.00;;;21.40;64.70;;;;;;4989583;28;20209;-79
2022/06/16 10:11:14;;;;;;;2.35;1.27;;;21.60;64.90;;;;;;4990147;28;20205;-79
2022/06/16 10:13:48;;;;;;;2.30;1.40;;;21.40;64.30;;;;;;4990318;28;20244;-79
2022/06/16 10:16:18;;;;;;;1.42;1.13;;;21.40;64.70;;;;;;4975449;28;20224;-79
2022/06/16 10:18:48;;;;;;;1.40;1.10;;;21.30;63.80;;;;;;4989985;28;20197;-79
2022/06/16 10:21:17;;;;;;;1.35;0.98;;;21.20;63.80;;;;;;4990546;28;20208;-79
2022/06/16 10:23:50;;;;;;;1.27;1.02;;;21.30;65.90;;;;;;4993612;28;20669;-79
2022/06/16 10:26:18;;;;;;;2.15;1.42;;;21.60;65.40;;;;;;5009250;28;20221;-79
2022/06/16 10:29:02;;;;;;;1.88;1.00;;;21.70;64.50;;;;;;5008856;28;20219;-78
2022/06/16 10:31:36;;;;;;;1.38;1.13;;;21.60;65.30;;;;;;4992824;28;20208;-79
2022/06/16 10:34:16;;;;;;;1.60;1.00;;;21.80;66.40;;;;;;5009511;28;20227;-79
2022/06/16 10:36:49;;;;;;;1.60;1.27;;;21.90;66.20;;;;;;5009460;28;20207;-79
2022/06/16 10:39:20;;;;;;;4.47;1.60;;;22.10;65.10;;;;;;5009303;28;20203;-79
2022/06/16 10:41:53;;;;;;;1.20;1.10;;;22.20;66.50;;;;;;4993589;28;20216;-79
2022/06/16 10:44:25;;;;;;;1.67;1.40;;;22.10;66.30;;;;;;4990889;28;20243;-79
2022/06/16 10:46:56;;;;;;;2.00;1.10;;;22.00;65.80;;;;;;4994568;28;20536;-79
2022/06/16 10:49:28;;;;;;;1.88;1.15;;;22.20;65.50;;;;;;4992660;28;20204;-79
2022/06/16 10:52:00;;;;;;;1.95;1.13;;;22.20;63.80;;;;;;4992502;28;20212;-79
2022/06/16 10:54:30;;;;;;;3.05;1.70;;;22.20;63.70;;;;;;4994018;28;20608;-79
2022/06/16 10:57:14;;;;;;;2.35;1.23;;;22.30;62.60;;;;;;5005120;28;20992;-79
2022/06/16 10:59:48;;;;;;;2.15;1.38;;;22.30;63.20;;;;;;4989650;28;20197;-78
2022/06/16 11:02:25;;;;;;;2.17;1.50;;;22.50;63.30;;;;;;4990077;28;20200;-79
2022/06/16 11:05:00;;;;;;;1.80;1.35;;;22.50;62.20;;;;;;4989629;28;20728;-79
2022/06/16 11:07:30;;;;;;;1.85;1.45;;;22.50;64.60;;;;;;4992570;28;20215;-79
2022/06/16 11:10:08;;;;;;;2.72;1.33;;;22.50;63.20;;;;;;5008545;28;20200;-79
2022/06/16 11:12:39;;;;;;;2.13;1.80;;;22.60;65.10;;;;;;5008819;28;20208;-79
2022/06/16 11:15:18;;;;;;;1.90;1.73;;;22.70;64.30;;;;;;5020643;28;20236;-79
2022/06/16 11:17:50;;;;;;;1.80;1.17;;;22.80;63.70;;;;;;5008677;28;20218;-79
2022/06/16 11:20:32;;;;;;;1.60;1.40;;;23.00;65.00;;;;;;4992801;28;20205;-79
2022/06/16 11:23:01;;;;;;;3.40;1.48;;;23.20;64.10;;;;;;5008394;28;20200;-79
2022/06/16 11:25:31;;;;;;;1.88;1.55;;;23.30;63.30;;;;;;4991819;28;20220;-79
2022/06/16 11:28:01;;;;;;;2.97;1.30;;;23.20;61.20;;;;;;5007931;28;20201;-79
2022/06/16 11:30:36;;;;;;;2.10;1.52;;;23.20;62.90;;;;;;5008281;28;20207;-79
2022/06/16 11:33:07;;;;;;;1.90;1.80;;;23.40;63.70;;;;;;4990871;28;20216;-79
2022/06/16 11:35:50;;;;;;;1.58;1.20;;;23.30;60.10;;;;;;4973091;28;20240;-79
2022/06/16 11:38:23;;;;;;;2.25;1.50;;;23.30;59.60;;;;;;4972684;28;20204;-79
2022/06/16 11:41:00;;;;;;;1.98;1.55;;;23.40;59.40;;;;;;4972748;28;20209;-79
2022/06/16 11:43:59;;;;;;;1.98;1.38;;;23.80;60.40;;;;;;4984054;28;20197;-79
2022/06/16 11:46:34;;;;;;;1.50;1.40;;;23.80;60.40;;;;;;4972861;28;20207;-79
2022/06/16 11:49:10;;;;;;;1.92;1.30;;;23.80;61.60;;;;;;4972349;28;20667;-79
2022/06/16 11:51:46;;;;;;;3.58;1.85;;;23.90;61.10;;;;;;4973449;28;20208;-79
2022/06/16 11:54:26;;;;;;;2.83;1.58;;;23.80;61.40;;;;;;5007136;28;20225;-79
2022/06/16 11:56:59;;;;;;;2.00;1.80;;;23.90;60.80;;;;;;5012224;28;20204;-79
2022/06/16 11:59:49;;;;;;;3.47;1.58;;;24.00;62.40;;;;;;5011273;28;20195;-78
2022/06/16 12:02:36;;;;;;;2.33;1.55;;;23.90;61.60;;;;;;5008953;28;20274;-79
2022/06/16 12:05:27;;;;;;;2.38;1.65;;;23.70;61.00;;;;;;5008190;28;20224;-78
2022/06/16 12:08:29;;;;;;;2.40;1.73;;;23.80;60.10;;;;;;4972665;28;20671;-79
2022/06/16 12:11:04;;;;;;;1.73;1.63;;;24.30;58.60;;;;;;4985758;28;20211;-79
2022/06/16 12:13:40;;;;;;;2.72;1.83;;;24.50;57.00;;;;;;4999954;28;20215;-79
2022/06/16 12:16:15;;;;;;;2.53;1.58;;;24.80;57.80;;;;;;4975258;28;20228;-80
2022/06/16 12:19:01;;;;;;;3.97;1.70;;;24.60;56.40;;;;;;5001240;28;20681;-82
2022/06/16 12:21:35;;;;;;;3.15;1.90;;;24.90;57.60;;;;;;5016890;28;20208;-82
2022/06/16 12:24:14;;;;;;;2.90;1.65;;;25.10;56.90;;;;;;4996340;28;20197;-81
2022/06/16 12:26:52;;;;;;;2.85;1.77;;;25.00;57.00;;;;;;5016432;28;20208;-82
2022/06/16 12:29:33;;;;;;;2.83;1.70;;;25.10;56.50;;;;;;5016459;28;20206;-82
2022/06/16 12:32:10;;;;;;;1.98;1.70;;;24.70;56.10;;;;;;5000761;28;20204;-81
2022/06/16 12:34:49;;;;;;;3.53;1.90;;;24.90;57.20;;;;;;5008734;28;20224;-82
2022/06/16 12:37:21;;;;;;;2.45;1.70;;;25.00;58.20;;;;;;4999329;28;20200;-81
2022/06/16 12:39:55;;;;;;;2.13;1.92;;;25.00;57.00;;;;;;4997532;28;20224;-82
2022/06/16 12:42:27;;;;;;;3.50;1.60;;;25.00;57.90;;;;;;4997725;28;20197;-82
2022/06/16 12:45:00;;;;;;;1.73;1.38;;;25.30;56.00;;;;;;4981130;28;20228;-82
2022/06/16 12:47:31;;;;;;;2.90;2.00;;;25.60;55.90;;;;;;4997115;28;20200;-82
2022/06/16 12:50:04;;;;;;;2.65;1.90;;;25.50;56.10;;;;;;5000349;23;20225;-83
2022/06/16 12:52:39;;;;;;;3.53;1.73;;;25.10;57.80;;;;;;4967718;28;20216;-83
2022/06/16 12:55:14;;;;;;;2.67;1.60;;;25.50;58.40;;;;;;4991783;28;20700;-83
2022/06/16 12:57:45;;;;;;;2.88;2.30;;;25.30;58.00;;;;;;4976557;28;20226;-83
2022/06/16 13:00:16;;;;;;;3.22;1.88;;;24.50;58.90;;;;;;4985636;28;20582;-83
2022/06/16 13:02:47;;;;;;;3.65;2.00;;;25.10;58.50;;;;;;4956720;29;20197;-84
2022/06/16 13:05:16;;;;;;;2.58;1.90;;;25.20;57.90;;;;;;4972704;28;20205;-83
2022/06/16 13:07:48;;;;;;;2.00;1.80;;;25.30;57.60;;;;;;4958415;28;20202;-84
2022/06/16 13:10:17;;;;;;;2.38;1.75;;;25.80;57.20;;;;;;4972824;28;20229;-84
2022/06/16 13:12:50;;;;;;;2.53;1.67;;;25.90;55.40;;;;;;4968216;28;20205;-83
2022/06/16 13:15:22;;;;;;;2.33;2.00;;;25.90;54.90;;;;;;4963153;28;20718;-84
2022/06/16 13:18:17;;;;;;;2.33;1.90;;;26.00;54.90;;;;;;4957368;29;20201;-84
2022/06/16 13:20:47;;;;;;;2.75;2.40;;;26.20;54.40;;;;;;4975995;28;20554;-83
2022/06/16 13:23:19;;;;;;;2.45;2.25;;;26.30;54.30;;;;;;4975801;28;20212;-84
2022/06/16 13:25:52;;;;;;;4.47;2.33;;;25.90;55.20;;;;;;4974259;28;20193;-83
2022/06/16 13:28:30;;;;;;;3.60;2.67;;;26.20;54.60;;;;;;4971662;28;20210;-83
2022/06/16 13:31:13;;;;;;;4.65;2.50;;;26.20;55.00;;;;;;4969908;28;20686;-84
2022/06/16 13:33:48;;;;;;;2.47;1.85;;;26.40;54.50;;;;;;4955882;29;20210;-83
2022/06/16 13:36:38;;;;;;;3.28;2.00;;;25.90;53.80;;;;;;4968061;28;20627;-83
2022/06/16 13:39:08;;;;;;;2.58;1.83;;;25.80;54.50;;;;;;4937307;29;20222;-83
2022/06/16 13:41:41;;;;;;;4.00;1.95;;;26.30;56.30;;;;;;4938120;29;20198;-83